Time;durP1;ratioP1;P1;durP2;ratioP2;P2;SDS_P1;SDS_P2;PMS_P1;PMS_P2;Temp;Humidity;BMP_temperature;BMP_pressure;BME280_temperature;BME280_humidity;BME280_pressure;Samples;Min_cycle;Max_cycle;Signal;HPM_P1;HPM_P2
2023/01/01 00:01:53;;;;;;;6.82;2.00;;;;;;;;;;5064437;28;20115;-81
2023/01/01 00:04:19;;;;;;;5.30;2.00;;;;;;;;;;5073107;28;20456;-83
2023/01/01 00:06:44;;;;;;;9.02;2.28;;;;;;;;;;5074074;28;20017;-82
2023/01/01 00:11:53;;;;;;;8.00;1.80;;;;;;;;;;5074536;28;20486;-84
2023/01/01 00:14:19;;;;;;;5.07;2.00;;;;;;;;;;5073868;28;20045;-83
2023/01/01 00:16:44;;;;;;;7.35;2.13;;;;;;;;;;5068150;28;20123;-83
2023/01/01 00:19:09;;;;;;;9.55;1.80;;;;;;;;;;5054888;28;20025;-82
2023/01/01 00:21:34;;;;;;;10.13;2.17;;;;;;;;;;5066853;28;20055;-82
2023/01/01 00:23:59;;;;;;;10.02;1.95;;;;;;;;;;5072647;28;20484;-83
2023/01/01 00:26:25;;;;;;;11.45;2.55;;;;;;;;;;5072757;28;20387;-83
2023/01/01 00:28:50;;;;;;;10.57;2.22;;;;;;;;;;5073469;28;20571;-82
2023/01/01 00:31:16;;;;;;;8.40;1.83;;;;;;;;;;5073938;28;20021;-83
2023/01/01 00:33:42;;;;;;;8.70;1.88;;;;;;;;;;5061522;28;20392;-82
2023/01/01 00:36:12;;;;;;;11.43;2.00;;;;;;;;;;5073704;28;20104;-82
2023/01/01 00:38:37;;;;;;;5.60;1.70;;;;;;;;;;5070852;28;20480;-82
2023/01/01 00:41:02;;;;;;;8.30;1.77;;;;;;;;;;5072262;28;20050;-83
2023/01/01 00:43:28;;;;;;;11.07;2.15;;;;;;;;;;5072042;28;20020;-83
2023/01/01 00:45:53;;;;;;;7.88;2.10;;;;;;;;;;5070131;28;20028;-83
2023/01/01 00:48:20;;;;;;;6.85;1.50;;;;;;;;;;5068672;28;20021;-83
2023/01/01 00:50:45;;;;;;;9.90;1.85;;;;;;;;;;5064473;28;20033;-82
2023/01/01 00:53:10;;;;;;;8.70;2.15;;;;;;;;;;5071516;28;20020;-82
2023/01/01 00:55:37;;;;;;;7.50;1.60;;;;;;;;;;5072083;28;20040;-83
2023/01/01 00:58:03;;;;;;;9.65;1.98;;;;;;;;;;5071658;28;20020;-83
2023/01/01 01:00:28;;;;;;;4.70;1.58;;;;;;;;;;5072010;28;20021;-82
2023/01/01 01:02:53;;;;;;;7.00;1.50;;;;;;;;;;5071701;28;20104;-82
2023/01/01 01:05:18;;;;;;;5.40;1.80;;;;;;;;;;5064562;28;20032;-82
2023/01/01 01:07:43;;;;;;;5.47;1.80;;;;;;;;;;5063164;28;20036;-83
2023/01/01 01:10:09;;;;;;;7.78;2.00;;;;;;;;;;5071753;28;20456;-82
2023/01/01 01:12:34;;;;;;;5.60;1.67;;;;;;;;;;5071468;28;20047;-82
2023/01/01 01:15:00;;;;;;;7.80;1.33;;;;;;;;;;5071715;28;20035;-83
2023/01/01 01:17:25;;;;;;;10.60;2.13;;;;;;;;;;5071474;28;20448;-82
2023/01/01 01:19:50;;;;;;;4.97;1.58;;;;;;;;;;5070162;28;20025;-83
2023/01/01 01:22:15;;;;;;;6.07;1.42;;;;;;;;;;5054230;28;20033;-82
2023/01/01 01:24:40;;;;;;;4.57;1.63;;;;;;;;;;5063121;28;20020;-83
2023/01/01 01:27:06;;;;;;;5.40;1.83;;;;;;;;;;5071356;28;20031;-82
2023/01/01 01:29:31;;;;;;;7.90;1.70;;;;;;;;;;5071269;28;20012;-82
2023/01/01 01:31:56;;;;;;;8.38;1.75;;;;;;;;;;5071023;28;20360;-82
2023/01/01 01:34:22;;;;;;;9.98;2.17;;;;;;;;;;5071132;28;20115;-82
2023/01/01 01:36:48;;;;;;;6.25;2.03;;;;;;;;;;5058132;28;20384;-82
2023/01/01 01:39:13;;;;;;;10.20;1.85;;;;;;;;;;5055613;28;20020;-81
2023/01/01 01:41:38;;;;;;;5.45;1.42;;;;;;;;;;5072636;28;20103;-83
2023/01/01 01:44:27;;;;;;;7.20;1.50;;;;;;;;;;5068672;28;20478;-82
2023/01/01 01:46:52;;;;;;;5.97;1.70;;;;;;;;;;5080762;28;20098;-83
2023/01/01 01:49:25;;;;;;;6.88;1.73;;;;;;;;;;5071801;28;20516;-82
2023/01/01 01:51:50;;;;;;;8.48;1.50;;;;;;;;;;5067923;28;20047;-83
2023/01/01 01:54:19;;;;;;;10.43;1.60;;;;;;;;;;5063946;28;20659;-82
2023/01/01 01:56:44;;;;;;;9.68;1.67;;;;;;;;;;5070190;28;20436;-83
2023/01/01 01:59:10;;;;;;;7.72;1.50;;;;;;;;;;5070693;28;20029;-82
2023/01/01 02:01:35;;;;;;;10.07;1.55;;;;;;;;;;5070666;28;20422;-83
2023/01/01 02:04:01;;;;;;;7.07;1.42;;;;;;;;;;5072257;28;20050;-82
2023/01/01 02:06:27;;;;;;;7.78;1.73;;;;;;;;;;5070742;28;20032;-82
2023/01/01 02:08:54;;;;;;;13.77;1.80;;;;;;;;;;5064887;28;20078;-82
2023/01/01 02:11:19;;;;;;;4.05;1.13;;;;;;;;;;5067204;28;20115;-82
2023/01/01 02:13:44;;;;;;;9.32;1.55;;;;;;;;;;5063789;28;20444;-82
2023/01/01 02:16:28;;;;;;;5.65;1.67;;;;;;;;;;5061778;28;20376;-82
2023/01/01 02:18:59;;;;;;;8.02;1.45;;;;;;;;;;5070181;28;20074;-82
2023/01/01 02:21:33;;;;;;;9.57;2.17;;;;;;;;;;5070145;28;20024;-82
2023/01/01 02:24:14;;;;;;;7.47;1.80;;;;;;;;;;5069180;28;20020;-82
2023/01/01 02:26:46;;;;;;;7.32;1.98;;;;;;;;;;5070436;28;20107;-82
2023/01/01 02:29:30;;;;;;;13.10;1.42;;;;;;;;;;5070167;28;20013;-82
2023/01/01 02:31:55;;;;;;;5.10;1.30;;;;;;;;;;5070140;28;20036;-82
2023/01/01 02:34:22;;;;;;;7.57;1.80;;;;;;;;;;5070562;28;20790;-82
2023/01/01 02:36:50;;;;;;;5.35;1.63;;;;;;;;;;5071489;28;20032;-82
2023/01/01 02:39:18;;;;;;;6.53;1.40;;;;;;;;;;5069792;28;20017;-83
2023/01/01 02:41:45;;;;;;;6.30;2.08;;;;;;;;;;5095384;28;20043;-83
2023/01/01 02:44:11;;;;;;;7.57;1.38;;;;;;;;;;5058851;28;20052;-83
2023/01/01 02:46:36;;;;;;;6.63;2.00;;;;;;;;;;5069003;28;20052;-82
2023/01/01 02:49:02;;;;;;;5.82;1.30;;;;;;;;;;5071251;28;20051;-82
2023/01/01 02:51:54;;;;;;;6.68;1.40;;;;;;;;;;5070023;28;20048;-82
2023/01/01 02:54:19;;;;;;;4.85;1.40;;;;;;;;;;5071589;28;20438;-82
2023/01/01 02:56:52;;;;;;;7.63;1.50;;;;;;;;;;5063071;28;20119;-81
2023/01/01 03:02:35;;;;;;;5.30;1.30;;;;;;;;;;5074967;28;20352;-83
2023/01/01 03:05:07;;;;;;;5.85;1.23;;;;;;;;;;5074261;28;20020;-82
2023/01/01 03:07:38;;;;;;;4.93;1.50;;;;;;;;;;5074190;28;20024;-82
2023/01/01 03:10:03;;;;;;;6.63;1.67;;;;;;;;;;5074055;28;20020;-82
2023/01/01 03:12:38;;;;;;;6.22;1.55;;;;;;;;;;5069407;28;20029;-83
2023/01/01 03:15:24;;;;;;;3.60;1.55;;;;;;;;;;5075446;28;20118;-82
2023/01/01 03:17:52;;;;;;;4.95;1.40;;;;;;;;;;5069595;28;20040;-82
2023/01/01 03:20:20;;;;;;;5.43;1.40;;;;;;;;;;5075311;28;20020;-83
2023/01/01 03:22:48;;;;;;;5.63;1.40;;;;;;;;;;5075401;28;20074;-82
2023/01/01 03:25:16;;;;;;;6.63;1.50;;;;;;;;;;5073766;28;20058;-81
2023/01/01 03:27:45;;;;;;;8.07;1.50;;;;;;;;;;5065521;28;20361;-82
2023/01/01 03:30:12;;;;;;;7.53;1.60;;;;;;;;;;5070420;28;20021;-82
2023/01/01 03:35:25;;;;;;;6.75;1.73;;;;;;;;;;5075427;28;20507;-82
2023/01/01 03:37:53;;;;;;;5.72;1.48;;;;;;;;;;5073370;28;20471;-82
2023/01/01 03:40:19;;;;;;;6.03;1.40;;;;;;;;;;5073024;28;20029;-81
2023/01/01 03:42:48;;;;;;;4.72;1.52;;;;;;;;;;5072262;28;20056;-82
2023/01/01 03:45:20;;;;;;;6.38;1.60;;;;;;;;;;5053444;28;20051;-81
2023/01/01 03:47:46;;;;;;;5.47;1.60;;;;;;;;;;5073208;28;20116;-82
2023/01/01 03:50:11;;;;;;;5.53;1.48;;;;;;;;;;5073227;28;20100;-82
2023/01/01 03:52:40;;;;;;;6.35;1.33;;;;;;;;;;5072998;28;20031;-82
2023/01/01 03:55:09;;;;;;;10.57;1.70;;;;;;;;;;5073439;28;20028;-82
2023/01/01 03:57:41;;;;;;;7.88;1.60;;;;;;;;;;5074562;28;20369;-82
2023/01/01 04:00:15;;;;;;;5.18;1.60;;;;;;;;;;5068080;28;20132;-82
2023/01/01 04:02:52;;;;;;;6.43;1.60;;;;;;;;;;5066599;28;20372;-82
2023/01/01 04:05:17;;;;;;;4.95;1.48;;;;;;;;;;5073164;28;20021;-82
2023/01/01 04:07:43;;;;;;;7.00;1.83;;;;;;;;;;5072773;28;20058;-82
2023/01/01 04:10:17;;;;;;;4.18;1.60;;;;;;;;;;5073149;28;20023;-82
2023/01/01 04:12:47;;;;;;;8.70;1.90;;;;;;;;;;5072428;28;20069;-82
2023/01/01 04:15:13;;;;;;;4.75;1.42;;;;;;;;;;5065041;28;20032;-82
2023/01/01 04:17:38;;;;;;;7.30;2.38;;;;;;;;;;5067172;28;20028;-82
2023/01/01 04:20:04;;;;;;;12.55;2.50;;;;;;;;;;5072592;28;20024;-82
2023/01/01 04:22:29;;;;;;;7.00;2.20;;;;;;;;;;5072483;28;20021;-82
2023/01/01 04:24:54;;;;;;;11.75;2.65;;;;;;;;;;5072791;28;20016;-81
2023/01/01 04:27:20;;;;;;;5.65;1.90;;;;;;;;;;5074078;28;20017;-82
2023/01/01 04:29:45;;;;;;;6.32;2.03;;;;;;;;;;5072497;28;20373;-82
2023/01/01 04:32:10;;;;;;;6.32;2.10;;;;;;;;;;5062434;28;20024;-81
2023/01/01 04:34:35;;;;;;;5.75;2.03;;;;;;;;;;5072358;28;20161;-81
2023/01/01 04:37:01;;;;;;;7.82;1.92;;;;;;;;;;5072486;28;20103;-82
2023/01/01 04:39:26;;;;;;;10.85;2.97;;;;;;;;;;5072095;28;20025;-82
2023/01/01 04:41:51;;;;;;;13.90;2.22;;;;;;;;;;5071616;28;20107;-82
2023/01/01 04:44:16;;;;;;;8.25;1.77;;;;;;;;;;5069360;28;20420;-82
2023/01/01 04:46:41;;;;;;;11.52;2.13;;;;;;;;;;5065378;28;20021;-82
2023/01/01 04:49:07;;;;;;;7.10;1.85;;;;;;;;;;5073106;28;20062;-82
2023/01/01 04:51:32;;;;;;;9.93;1.77;;;;;;;;;;5071856;28;20362;-82
2023/01/01 04:53:57;;;;;;;7.93;1.90;;;;;;;;;;5071507;28;20027;-81
2023/01/01 04:56:23;;;;;;;6.00;1.50;;;;;;;;;;5072173;28;20357;-82
2023/01/01 04:58:48;;;;;;;4.10;1.40;;;;;;;;;;5072092;28;20025;-82
2023/01/01 05:01:15;;;;;;;7.30;1.80;;;;;;;;;;5065212;28;20051;-82
2023/01/01 05:03:40;;;;;;;4.53;1.45;;;;;;;;;;5064375;28;20384;-82
2023/01/01 05:06:07;;;;;;;9.80;2.03;;;;;;;;;;5069408;28;20012;-81
2023/01/01 05:08:33;;;;;;;11.77;1.55;;;;;;;;;;5071630;28;20017;-82
2023/01/01 05:10:59;;;;;;;11.52;1.70;;;;;;;;;;5071528;28;20024;-81
2023/01/01 05:13:25;;;;;;;9.18;1.90;;;;;;;;;;5071566;28;20498;-82
2023/01/01 05:15:50;;;;;;;5.80;1.38;;;;;;;;;;5067293;28;20064;-82
2023/01/01 05:18:15;;;;;;;6.78;1.95;;;;;;;;;;5071613;28;20034;-82
2023/01/01 05:20:40;;;;;;;4.90;1.70;;;;;;;;;;5071744;28;20372;-81
2023/01/01 05:23:05;;;;;;;4.82;1.30;;;;;;;;;;5070649;28;20054;-81
2023/01/01 05:25:31;;;;;;;9.20;1.27;;;;;;;;;;5071443;28;20020;-82
2023/01/01 05:27:56;;;;;;;4.07;1.42;;;;;;;;;;5069705;28;20016;-82
2023/01/01 05:30:21;;;;;;;4.80;1.35;;;;;;;;;;5051592;28;20021;-81
2023/01/01 05:32:46;;;;;;;9.15;2.22;;;;;;;;;;5064299;28;20148;-82
2023/01/01 05:35:11;;;;;;;8.30;1.73;;;;;;;;;;5071190;28;20148;-82
2023/01/01 05:37:36;;;;;;;5.68;1.40;;;;;;;;;;5071367;28;20633;-81
2023/01/01 05:40:02;;;;;;;6.05;1.63;;;;;;;;;;5071278;28;20430;-82
2023/01/01 05:42:27;;;;;;;5.78;1.48;;;;;;;;;;5071080;28;20052;-82
2023/01/01 05:44:52;;;;;;;5.70;1.50;;;;;;;;;;5061711;28;20338;-82
2023/01/01 05:47:17;;;;;;;14.52;1.60;;;;;;;;;;5064312;28;20024;-82
2023/01/01 05:49:43;;;;;;;6.28;1.63;;;;;;;;;;5071177;28;20062;-82
2023/01/01 05:52:08;;;;;;;8.18;2.13;;;;;;;;;;5070656;28;20047;-81
2023/01/01 05:54:33;;;;;;;5.68;1.50;;;;;;;;;;5071235;28;20478;-82
2023/01/01 05:56:58;;;;;;;7.10;1.60;;;;;;;;;;5072122;28;20020;-82
2023/01/01 05:59:23;;;;;;;7.40;1.70;;;;;;;;;;5070547;28;20031;-82
2023/01/01 06:01:49;;;;;;;9.18;1.50;;;;;;;;;;5066009;28;20036;-82
2023/01/01 06:04:14;;;;;;;9.65;1.75;;;;;;;;;;5067110;28;20040;-82
2023/01/01 06:06:39;;;;;;;8.35;1.65;;;;;;;;;;5062478;28;20353;-82
2023/01/01 06:09:04;;;;;;;8.43;1.67;;;;;;;;;;5064799;28;20019;-81
2023/01/01 06:11:30;;;;;;;8.05;1.90;;;;;;;;;;5070789;28;20024;-82
2023/01/01 06:13:56;;;;;;;6.50;1.52;;;;;;;;;;5070542;28;20363;-82
2023/01/01 06:16:22;;;;;;;9.07;1.50;;;;;;;;;;5070418;28;20112;-81
2023/01/01 06:18:47;;;;;;;7.55;2.17;;;;;;;;;;5056005;28;20111;-81
2023/01/01 06:21:13;;;;;;;4.93;1.50;;;;;;;;;;5066252;28;20078;-82
2023/01/01 06:23:39;;;;;;;11.25;2.10;;;;;;;;;;5071528;28;20492;-82
2023/01/01 06:26:12;;;;;;;7.07;1.60;;;;;;;;;;5071741;28;20040;-82
2023/01/01 06:28:37;;;;;;;10.68;2.03;;;;;;;;;;5070423;28;20028;-82
2023/01/01 06:31:03;;;;;;;7.30;2.00;;;;;;;;;;5070254;28;20038;-81
2023/01/01 06:33:28;;;;;;;9.98;2.00;;;;;;;;;;5068777;28;20090;-82
2023/01/01 06:35:54;;;;;;;4.88;1.73;;;;;;;;;;5061718;28;20020;-82
2023/01/01 06:38:19;;;;;;;9.32;2.10;;;;;;;;;;5071116;28;20359;-81
2023/01/01 06:40:53;;;;;;;7.38;1.80;;;;;;;;;;5070360;28;20388;-81
2023/01/01 06:43:18;;;;;;;9.23;2.10;;;;;;;;;;5069847;28;20052;-82
2023/01/01 06:45:43;;;;;;;8.43;1.77;;;;;;;;;;5063333;28;20023;-82
2023/01/01 06:48:09;;;;;;;3.80;1.63;;;;;;;;;;5070066;28;20472;-82
2023/01/01 06:50:38;;;;;;;10.18;1.63;;;;;;;;;;5064295;28;20107;-82
2023/01/01 06:53:03;;;;;;;8.13;2.17;;;;;;;;;;5069990;28;20017;-82
2023/01/01 06:55:29;;;;;;;8.05;1.90;;;;;;;;;;5070136;28;20043;-82
2023/01/01 06:57:54;;;;;;;7.45;2.00;;;;;;;;;;5069928;28;20384;-82
2023/01/01 07:00:19;;;;;;;9.95;1.80;;;;;;;;;;5070390;28;20020;-82
2023/01/01 07:02:46;;;;;;;6.82;1.50;;;;;;;;;;5069745;28;20074;-81
2023/01/01 07:05:11;;;;;;;13.25;2.03;;;;;;;;;;5071609;28;20040;-81
2023/01/01 07:07:37;;;;;;;6.47;2.10;;;;;;;;;;5066034;28;20059;-81
2023/01/01 07:10:02;;;;;;;9.77;1.98;;;;;;;;;;5071799;28;20453;-82
2023/01/01 07:12:27;;;;;;;11.70;2.40;;;;;;;;;;5071198;28;20380;-81
2023/01/01 07:14:52;;;;;;;9.27;1.85;;;;;;;;;;5070278;28;20016;-82
2023/01/01 07:17:17;;;;;;;12.52;2.55;;;;;;;;;;5069787;28;20366;-81
2023/01/01 07:19:43;;;;;;;8.13;2.03;;;;;;;;;;5070027;28;20352;-82
2023/01/01 07:22:09;;;;;;;8.55;1.70;;;;;;;;;;5061285;28;20029;-82
2023/01/01 07:24:34;;;;;;;6.10;1.90;;;;;;;;;;5065321;28;20035;-82
2023/01/01 07:26:59;;;;;;;8.07;2.03;;;;;;;;;;5069696;28;20461;-82
2023/01/01 07:29:24;;;;;;;8.02;1.88;;;;;;;;;;5069763;28;20092;-81
2023/01/01 07:31:49;;;;;;;6.90;2.03;;;;;;;;;;5069260;28;20024;-82
2023/01/01 07:34:17;;;;;;;14.10;2.08;;;;;;;;;;5069841;28;20444;-81
2023/01/01 07:36:43;;;;;;;11.98;2.22;;;;;;;;;;5069699;28;20376;-82
2023/01/01 07:39:08;;;;;;;7.05;1.90;;;;;;;;;;5064224;28;20123;-82
2023/01/01 07:41:34;;;;;;;4.88;2.25;;;;;;;;;;5069545;28;20035;-82
2023/01/01 07:43:59;;;;;;;7.25;2.20;;;;;;;;;;5068792;28;20013;-82
2023/01/01 07:46:25;;;;;;;10.98;2.13;;;;;;;;;;5065379;28;20036;-82
2023/01/01 07:48:50;;;;;;;9.00;2.20;;;;;;;;;;5063158;28;20067;-81
2023/01/01 07:51:15;;;;;;;10.95;2.20;;;;;;;;;;5071205;28;20116;-82
2023/01/01 07:53:40;;;;;;;12.38;1.75;;;;;;;;;;5070453;28;20048;-82
2023/01/01 07:56:06;;;;;;;15.15;2.42;;;;;;;;;;5074512;28;20103;-82
2023/01/01 07:58:31;;;;;;;13.25;2.35;;;;;;;;;;5073035;28;20028;-81
2023/01/01 08:00:56;;;;;;;10.55;2.00;;;;;;;;;;5072525;28;20025;-82
2023/01/01 08:03:21;;;;;;;8.90;2.50;;;;;;;;;;5060676;28;20020;-82
2023/01/01 08:05:47;;;;;;;10.65;2.15;;;;;;;;;;5073053;28;20372;-82
2023/01/01 08:08:12;;;;;;;9.90;2.38;;;;;;;;;;5072646;28;20021;-82
2023/01/01 08:10:37;;;;;;;5.82;1.75;;;;;;;;;;5059557;28;20453;-82
2023/01/01 08:13:04;;;;;;;11.48;2.20;;;;;;;;;;5071662;28;20016;-82
2023/01/01 08:15:29;;;;;;;6.20;1.75;;;;;;;;;;5066780;28;20031;-82
2023/01/01 08:17:58;;;;;;;7.88;1.90;;;;;;;;;;5069302;28;20025;-82
2023/01/01 08:20:23;;;;;;;19.05;2.50;;;;;;;;;;5074208;28;20048;-82
2023/01/01 08:22:49;;;;;;;9.57;2.05;;;;;;;;;;5072327;28;20063;-81
2023/01/01 08:25:14;;;;;;;8.30;2.78;;;;;;;;;;5072718;28;20016;-82
2023/01/01 08:27:39;;;;;;;11.90;2.30;;;;;;;;;;5074149;28;20024;-81
2023/01/01 08:30:05;;;;;;;13.02;2.30;;;;;;;;;;5071078;28;20009;-82
2023/01/01 08:32:30;;;;;;;11.48;1.92;;;;;;;;;;5063784;28;20479;-82
2023/01/01 08:34:55;;;;;;;9.68;2.20;;;;;;;;;;5066506;28;20029;-82
2023/01/01 08:37:20;;;;;;;13.30;2.30;;;;;;;;;;5081601;28;20057;-82
2023/01/01 08:39:48;;;;;;;6.93;1.85;;;;;;;;;;5045007;28;20452;-82
2023/01/01 08:42:13;;;;;;;6.40;2.03;;;;;;;;;;5049071;28;20017;-82
2023/01/01 08:44:38;;;;;;;9.70;2.33;;;;;;;;;;5055834;28;20495;-80
2023/01/01 08:47:03;;;;;;;8.65;2.30;;;;;;;;;;5048920;28;20021;-83
2023/01/01 08:49:28;;;;;;;12.00;2.90;;;;;;;;;;5052011;28;20040;-81
2023/01/01 08:51:54;;;;;;;12.85;2.25;;;;;;;;;;5052226;28;20085;-80
2023/01/01 08:54:19;;;;;;;9.77;2.10;;;;;;;;;;5065502;28;20028;-82
2023/01/01 08:56:44;;;;;;;10.07;2.00;;;;;;;;;;5072050;28;20178;-82
2023/01/01 08:59:09;;;;;;;8.52;2.10;;;;;;;;;;5058030;28;20086;-82
2023/01/01 09:01:34;;;;;;;10.90;2.80;;;;;;;;;;5051940;28;20039;-82
2023/01/01 09:03:59;;;;;;;8.10;1.92;;;;;;;;;;5052942;28;20028;-81
2023/01/01 09:06:25;;;;;;;6.97;2.38;;;;;;;;;;5071976;28;20017;-82
2023/01/01 09:08:50;;;;;;;14.35;2.80;;;;;;;;;;5064766;28;20672;-81
2023/01/01 09:11:23;;;;;;;11.88;1.98;;;;;;;;;;5048712;28;20033;-80
2023/01/01 09:13:48;;;;;;;12.23;2.20;;;;;;;;;;5049946;28;20444;-80
2023/01/01 09:16:13;;;;;;;11.48;2.72;;;;;;;;;;5051845;28;20029;-81
2023/01/01 09:18:39;;;;;;;12.02;2.38;;;;;;;;;;5060543;28;20025;-81
2023/01/01 09:21:05;;;;;;;11.75;2.00;;;;;;;;;;5071203;28;20028;-81
2023/01/01 09:23:30;;;;;;;8.27;1.98;;;;;;;;;;5057733;28;20024;-81
2023/01/01 09:25:57;;;;;;;7.22;2.55;;;;;;;;;;5060065;28;20082;-82
2023/01/01 09:28:22;;;;;;;12.02;2.30;;;;;;;;;;5067475;28;20449;-81
2023/01/01 09:30:47;;;;;;;14.88;2.83;;;;;;;;;;5066325;28;20023;-81
2023/01/01 09:33:12;;;;;;;8.68;2.25;;;;;;;;;;5057553;28;20013;-81
2023/01/01 09:35:37;;;;;;;8.82;2.10;;;;;;;;;;5065613;28;20400;-81
2023/01/01 09:38:03;;;;;;;10.27;2.03;;;;;;;;;;5052755;28;20028;-81
2023/01/01 09:40:43;;;;;;;10.90;3.10;;;;;;;;;;5052633;28;20028;-81
2023/01/01 09:43:34;;;;;;;15.35;2.30;;;;;;;;;;5054873;28;20024;-81
2023/01/01 09:46:01;;;;;;;8.05;2.20;;;;;;;;;;5045862;28;20086;-81
2023/01/01 09:48:28;;;;;;;7.35;2.00;;;;;;;;;;5051935;28;20116;-81
2023/01/01 09:50:53;;;;;;;8.25;1.80;;;;;;;;;;5065711;28;20031;-81
2023/01/01 09:53:21;;;;;;;5.28;1.88;;;;;;;;;;5066517;28;20099;-80
2023/01/01 09:55:52;;;;;;;8.57;2.00;;;;;;;;;;5065744;28;20476;-81
2023/01/01 09:58:21;;;;;;;9.18;1.98;;;;;;;;;;5049477;28;20113;-81
2023/01/01 10:00:48;;;;;;;10.93;1.92;;;;;;;;;;5061090;28;20468;-81
2023/01/01 10:03:19;;;;;;;8.70;2.25;;;;;;;;;;5052776;28;20017;-81
2023/01/01 10:06:00;;;;;;;9.40;2.08;;;;;;;;;;5048689;28;20040;-80
2023/01/01 10:08:26;;;;;;;9.20;2.25;;;;;;;;;;5051289;28;20032;-81
2023/01/01 10:11:09;;;;;;;10.70;2.53;;;;;;;;;;5049328;28;20116;-81
2023/01/01 10:13:37;;;;;;;7.18;1.98;;;;;;;;;;5048780;28;20117;-81
2023/01/01 10:16:04;;;;;;;12.18;2.20;;;;;;;;;;5049309;28;20017;-81
2023/01/01 10:18:36;;;;;;;7.57;1.80;;;;;;;;;;5049672;28;20107;-80
2023/01/01 10:21:07;;;;;;;7.43;1.85;;;;;;;;;;5050328;28;20025;-81
2023/01/01 10:23:37;;;;;;;9.85;1.90;;;;;;;;;;5048703;28;20025;-81
2023/01/01 10:26:07;;;;;;;9.10;2.03;;;;;;;;;;5050568;28;20033;-81
2023/01/01 10:28:38;;;;;;;7.78;1.90;;;;;;;;;;5050794;28;20478;-81
2023/01/01 10:31:17;;;;;;;9.40;1.50;;;;;;;;;;5048405;28;20016;-81
2023/01/01 10:33:44;;;;;;;9.80;1.77;;;;;;;;;;5050031;28;20495;-80
2023/01/01 10:36:11;;;;;;;11.25;2.38;;;;;;;;;;5050334;28;20028;-80
2023/01/01 10:38:37;;;;;;;12.10;1.88;;;;;;;;;;5049972;28;20036;-81
2023/01/01 10:41:04;;;;;;;12.48;1.58;;;;;;;;;;5048648;28;20025;-80
2023/01/01 10:43:30;;;;;;;9.48;1.85;;;;;;;;;;5050112;28;20033;-80
2023/01/01 10:45:55;;;;;;;12.00;1.77;;;;;;;;;;5049882;28;20021;-81
2023/01/01 10:48:25;;;;;;;9.43;2.08;;;;;;;;;;5044987;28;20017;-81
2023/01/01 10:50:54;;;;;;;5.07;1.30;;;;;;;;;;5048388;28;20017;-80
2023/01/01 10:53:23;;;;;;;8.52;1.80;;;;;;;;;;5048479;28;20083;-80
2023/01/01 10:55:49;;;;;;;15.95;2.10;;;;;;;;;;5053561;28;20020;-81
2023/01/01 10:58:35;;;;;;;6.80;1.20;;;;;;;;;;5070176;28;20062;-81
2023/01/01 11:01:01;;;;;;;12.73;2.28;;;;;;;;;;5063662;28;20043;-80
2023/01/01 11:03:27;;;;;;;9.73;2.30;;;;;;;;;;5071487;28;20040;-80
2023/01/01 11:05:59;;;;;;;8.45;1.80;;;;;;;;;;5069879;28;20352;-80
2023/01/01 11:08:25;;;;;;;11.00;1.80;;;;;;;;;;5070003;28;20020;-81
2023/01/01 11:10:50;;;;;;;13.90;1.70;;;;;;;;;;5069651;28;20736;-80
2023/01/01 11:13:19;;;;;;;14.00;1.90;;;;;;;;;;5062421;28;20089;-80
2023/01/01 11:15:45;;;;;;;6.55;1.92;;;;;;;;;;5069485;28;20052;-80
2023/01/01 11:18:12;;;;;;;11.23;2.08;;;;;;;;;;5070776;28;20478;-81
2023/01/01 11:20:37;;;;;;;9.50;2.10;;;;;;;;;;5069986;28;20066;-80
2023/01/01 11:23:29;;;;;;;13.75;2.63;;;;;;;;;;5063780;28;20032;-80
2023/01/01 11:26:02;;;;;;;11.10;1.58;;;;;;;;;;5066079;28;20136;-81
2023/01/01 11:28:30;;;;;;;11.57;2.20;;;;;;;;;;5073577;28;20028;-81
2023/01/01 11:30:58;;;;;;;7.43;1.85;;;;;;;;;;5065784;28;20020;-80
2023/01/01 11:33:24;;;;;;;10.38;1.77;;;;;;;;;;5072291;28;20025;-81
2023/01/01 11:35:52;;;;;;;13.43;1.90;;;;;;;;;;5073567;28;20070;-81
2023/01/01 11:38:18;;;;;;;11.77;2.00;;;;;;;;;;5073144;28;20367;-81
2023/01/01 11:40:44;;;;;;;9.95;1.85;;;;;;;;;;5063978;28;20040;-81
2023/01/01 11:43:15;;;;;;;12.77;1.73;;;;;;;;;;5069556;28;20083;-81
2023/01/01 11:45:41;;;;;;;9.10;2.10;;;;;;;;;;5066724;28;20384;-80
2023/01/01 11:48:16;;;;;;;12.00;2.30;;;;;;;;;;5073274;28;20150;-81
2023/01/01 11:50:48;;;;;;;9.48;1.88;;;;;;;;;;5073346;28;20021;-80
2023/01/01 11:53:13;;;;;;;;;;;;;;;;;;5073416;28;20058;-80
2023/01/01 11:55:43;;;;;;;8.55;2.00;;;;;;;;;;5072401;28;19905;-80
2023/01/01 11:58:17;;;;;;;10.10;1.80;;;;;;;;;;5083058;28;20253;-81
2023/01/01 12:00:42;;;;;;;12.70;2.20;;;;;;;;;;5073181;28;20479;-81
2023/01/01 12:03:11;;;;;;;12.00;2.05;;;;;;;;;;5073201;28;20017;-80
2023/01/01 12:05:41;;;;;;;6.88;1.25;;;;;;;;;;5065744;28;20020;-81
2023/01/01 12:08:08;;;;;;;9.93;1.80;;;;;;;;;;5078774;28;20017;-81
2023/01/01 12:10:39;;;;;;;8.82;2.13;;;;;;;;;;5073319;28;20376;-81
2023/01/01 12:13:09;;;;;;;6.63;1.80;;;;;;;;;;5074088;28;20470;-80
2023/01/01 12:15:50;;;;;;;12.13;1.70;;;;;;;;;;5072944;28;20024;-81
2023/01/01 12:18:25;;;;;;;14.38;2.15;;;;;;;;;;5072464;28;20016;-80
2023/01/01 12:21:31;;;;;;;8.13;1.40;;;;;;;;;;5068551;28;20055;-81
2023/01/01 12:23:56;;;;;;;12.43;1.85;;;;;;;;;;5051478;28;20025;-80
2023/01/01 12:26:40;;;;;;;6.25;1.67;;;;;;;;;;5051984;28;20533;-80
2023/01/01 12:29:15;;;;;;;13.63;2.10;;;;;;;;;;5047498;28;20032;-80
2023/01/01 12:31:52;;;;;;;20.63;1.92;;;;;;;;;;5050538;28;20028;-81
2023/01/01 12:34:38;;;;;;;10.73;1.70;;;;;;;;;;5052884;28;20048;-81
2023/01/01 12:37:06;;;;;;;8.82;1.40;;;;;;;;;;5059001;28;20123;-81
2023/01/01 12:39:31;;;;;;;7.65;1.67;;;;;;;;;;5060436;28;20528;-81
2023/01/01 12:41:56;;;;;;;19.50;1.90;;;;;;;;;;5060978;28;20070;-81
2023/01/01 12:44:31;;;;;;;10.63;1.60;;;;;;;;;;5049532;28;20456;-80
2023/01/01 12:47:05;;;;;;;9.15;1.75;;;;;;;;;;5063447;28;20023;-81
2023/01/01 12:49:36;;;;;;;11.90;1.80;;;;;;;;;;5063341;28;20480;-80
2023/01/01 12:52:13;;;;;;;10.80;2.55;;;;;;;;;;5067591;28;20026;-81
2023/01/01 12:54:38;;;;;;;10.27;1.63;;;;;;;;;;5072006;28;20035;-81
2023/01/01 12:57:16;;;;;;;7.32;2.03;;;;;;;;;;5066049;28;20103;-81
2023/01/01 12:59:44;;;;;;;10.95;1.98;;;;;;;;;;5048554;28;20100;-81
2023/01/01 13:02:16;;;;;;;12.60;2.70;;;;;;;;;;5068341;28;20106;-80
2023/01/01 13:04:42;;;;;;;8.13;1.83;;;;;;;;;;5043567;28;20017;-80
2023/01/01 13:07:10;;;;;;;10.90;1.83;;;;;;;;;;5061476;28;20024;-81
2023/01/01 13:09:37;;;;;;;9.13;2.25;;;;;;;;;;5054880;28;20097;-81
2023/01/01 13:12:02;;;;;;;15.02;2.25;;;;;;;;;;5062531;28;20031;-80
2023/01/01 13:14:27;;;;;;;9.27;1.92;;;;;;;;;;5054977;28;20029;-80
2023/01/01 13:16:54;;;;;;;12.80;2.38;;;;;;;;;;5071473;28;20743;-81
2023/01/01 13:19:22;;;;;;;8.60;1.90;;;;;;;;;;5055977;28;20032;-81
2023/01/01 13:21:47;;;;;;;8.27;2.00;;;;;;;;;;5063135;28;20020;-81
2023/01/01 13:24:20;;;;;;;6.32;1.70;;;;;;;;;;5058943;28;20025;-81
2023/01/01 13:26:47;;;;;;;9.82;2.50;;;;;;;;;;5048380;28;20159;-81
2023/01/01 13:29:13;;;;;;;10.60;2.10;;;;;;;;;;5052821;28;20024;-82
2023/01/01 13:31:38;;;;;;;11.10;2.58;;;;;;;;;;5054411;28;20028;-81
2023/01/01 13:34:22;;;;;;;10.32;2.05;;;;;;;;;;5051304;28;20261;-81
2023/01/01 13:36:47;;;;;;;7.68;2.42;;;;;;;;;;5056370;28;20078;-81
2023/01/01 13:39:32;;;;;;;14.00;2.25;;;;;;;;;;5061227;28;20107;-81
2023/01/01 13:41:57;;;;;;;14.80;2.35;;;;;;;;;;5068241;28;20393;-81
2023/01/01 13:44:22;;;;;;;11.13;2.03;;;;;;;;;;5049190;28;20022;-81
2023/01/01 13:46:57;;;;;;;12.70;2.30;;;;;;;;;;5063036;28;20024;-81
2023/01/01 13:49:31;;;;;;;12.07;2.22;;;;;;;;;;5055128;28;20456;-81
2023/01/01 13:52:01;;;;;;;10.63;2.17;;;;;;;;;;5068063;28;20028;-81
2023/01/01 13:54:38;;;;;;;9.65;2.17;;;;;;;;;;5054852;28;20021;-82
2023/01/01 13:57:18;;;;;;;8.65;2.10;;;;;;;;;;5051760;28;20036;-81
2023/01/01 13:59:51;;;;;;;10.95;2.00;;;;;;;;;;5040760;28;20079;-81
2023/01/01 14:02:39;;;;;;;11.57;2.20;;;;;;;;;;5053375;28;20385;-81
2023/01/01 14:05:12;;;;;;;14.75;1.90;;;;;;;;;;5054981;28;20024;-81
2023/01/01 14:07:49;;;;;;;18.85;2.10;;;;;;;;;;5066923;28;20382;-81
2023/01/01 14:10:14;;;;;;;8.82;2.35;;;;;;;;;;5053391;28;20021;-81
2023/01/01 14:12:39;;;;;;;13.05;2.60;;;;;;;;;;5056178;28;20534;-81
2023/01/01 14:15:15;;;;;;;14.77;3.80;;;;;;;;;;5070808;28;20103;-81
2023/01/01 14:17:41;;;;;;;19.42;3.00;;;;;;;;;;5070420;28;20029;-81
2023/01/01 14:20:06;;;;;;;12.77;3.03;;;;;;;;;;5067487;28;20028;-81
2023/01/01 14:22:32;;;;;;;13.20;2.80;;;;;;;;;;5062620;28;20480;-82
2023/01/01 14:24:58;;;;;;;14.18;3.17;;;;;;;;;;5053685;28;20068;-81
2023/01/01 14:27:25;;;;;;;10.90;2.33;;;;;;;;;;5061322;28;20024;-81
2023/01/01 14:29:51;;;;;;;12.73;2.40;;;;;;;;;;5069761;28;20818;-82
2023/01/01 14:32:24;;;;;;;4.07;1.13;;;;;;;;;;5070105;28;20020;-82
2023/01/01 14:35:01;;;;;;;8.23;1.70;;;;;;;;;;5070226;28;20027;-82
2023/01/01 14:37:26;;;;;;;8.27;1.70;;;;;;;;;;5058302;28;20027;-82
2023/01/01 14:40:13;;;;;;;9.00;1.80;;;;;;;;;;5039250;28;20479;-80
2023/01/01 14:42:39;;;;;;;8.65;1.70;;;;;;;;;;5051118;28;20038;-82
2023/01/01 14:45:04;;;;;;;10.93;1.83;;;;;;;;;;5053202;28;20449;-81
2023/01/01 14:47:31;;;;;;;11.60;1.98;;;;;;;;;;5069869;28;20008;-81
2023/01/01 14:50:08;;;;;;;9.00;2.70;;;;;;;;;;5055771;28;20052;-81
2023/01/01 14:52:34;;;;;;;13.48;2.15;;;;;;;;;;5041122;28;20025;-82